<?xml version="1.0" encoding="UTF-8" standalone="no" ?>
<gpx xmlns="http://www.topografix.com/GPX/1/1" xmlns:xsi="http://www.w3.org/2001/XMLSchema-instance" xsi:schemaLocation="http://www.topografix.com/GPX/1/1 http://www.topografix.com/GPX/1/1/gpx.xsd" version="1.1" creator="VisuGPX - https://www.visugpx.com">
  <metadata>
    <name>cavaliers aligot 2021 trajet retour 11km</name>
  </metadata>
  <trk>
    <name><![CDATA[cavaliers aligot 2021 trajet retour 11km]]></name>
    <trkseg>
      <trkpt lat="48.66148" lon="1.87992">
        <ele>172</ele>
        <time>2021-08-26T10:34:13+02:00</time>
      </trkpt>
      <trkpt lat="48.66094" lon="1.88009">
        <ele>173</ele>
        <time>2021-08-26T10:34:18+02:00</time>
      </trkpt>
      <trkpt lat="48.6604" lon="1.88035">
        <ele>172</ele>
        <time>2021-08-26T10:34:23+02:00</time>
      </trkpt>
      <trkpt lat="48.65972" lon="1.88044">
        <ele>170</ele>
        <time>2021-08-26T10:34:28+02:00</time>
      </trkpt>
      <trkpt lat="48.65935" lon="1.88143">
        <ele>172</ele>
        <time>2021-08-26T10:34:33+02:00</time>
      </trkpt>
      <trkpt lat="48.65915" lon="1.88289">
        <ele>174</ele>
        <time>2021-08-26T10:34:38+02:00</time>
      </trkpt>
      <trkpt lat="48.65893" lon="1.88414">
        <ele>172</ele>
        <time>2021-08-26T10:34:43+02:00</time>
      </trkpt>
      <trkpt lat="48.65856" lon="1.88478">
        <ele>172</ele>
        <time>2021-08-26T10:34:48+02:00</time>
      </trkpt>
      <trkpt lat="48.65745" lon="1.88526">
        <ele>170</ele>
        <time>2021-08-26T10:34:53+02:00</time>
      </trkpt>
      <trkpt lat="48.65603" lon="1.88531">
        <ele>172</ele>
        <time>2021-08-26T10:34:58+02:00</time>
      </trkpt>
      <trkpt lat="48.65492" lon="1.88491">
        <ele>173</ele>
        <time>2021-08-26T10:35:03+02:00</time>
      </trkpt>
      <trkpt lat="48.65443" lon="1.88526">
        <ele>171</ele>
        <time>2021-08-26T10:35:08+02:00</time>
      </trkpt>
      <trkpt lat="48.65228" lon="1.89822">
        <ele>181</ele>
        <time>2021-08-26T10:35:13+02:00</time>
      </trkpt>
      <trkpt lat="48.65274" lon="1.89886">
        <ele>182</ele>
        <time>2021-08-26T10:35:18+02:00</time>
      </trkpt>
      <trkpt lat="48.65192" lon="1.90052">
        <ele>180</ele>
        <time>2021-08-26T10:35:23+02:00</time>
      </trkpt>
      <trkpt lat="48.64919" lon="1.90644">
        <ele>173</ele>
        <time>2021-08-26T10:35:28+02:00</time>
      </trkpt>
      <trkpt lat="48.65298" lon="1.9107">
        <ele>178</ele>
        <time>2021-08-26T10:35:33+02:00</time>
      </trkpt>
      <trkpt lat="48.64615" lon="1.92579">
        <ele>173</ele>
        <time>2021-08-26T10:35:38+02:00</time>
      </trkpt>
      <trkpt lat="48.64889" lon="1.92883">
        <ele>171</ele>
        <time>2021-08-26T10:35:43+02:00</time>
      </trkpt>
      <trkpt lat="48.65089" lon="1.93494">
        <ele>171</ele>
        <time>2021-08-26T10:35:48+02:00</time>
      </trkpt>
      <trkpt lat="48.65341" lon="1.94221">
        <ele>144</ele>
        <time>2021-08-26T10:35:53+02:00</time>
      </trkpt>
      <trkpt lat="48.65327" lon="1.94254">
        <ele>143</ele>
        <time>2021-08-26T10:35:58+02:00</time>
      </trkpt>
      <trkpt lat="48.65389" lon="1.9434">
        <ele>148</ele>
        <time>2021-08-26T10:36:03+02:00</time>
      </trkpt>
      <trkpt lat="48.65527" lon="1.94318">
        <ele>159</ele>
        <time>2021-08-26T10:36:08+02:00</time>
      </trkpt>
      <trkpt lat="48.65556" lon="1.94467">
        <ele>177</ele>
        <time>2021-08-26T10:36:13+02:00</time>
      </trkpt>
      <trkpt lat="48.65584" lon="1.94502">
        <ele>181</ele>
        <time>2021-08-26T10:36:18+02:00</time>
      </trkpt>
      <trkpt lat="48.65676" lon="1.9447">
        <ele>177</ele>
        <time>2021-08-26T10:36:23+02:00</time>
      </trkpt>
      <trkpt lat="48.65715" lon="1.94582">
        <ele>174</ele>
        <time>2021-08-26T10:36:28+02:00</time>
      </trkpt>
      <trkpt lat="48.65781" lon="1.94543">
        <ele>173</ele>
        <time>2021-08-26T10:36:33+02:00</time>
      </trkpt>
      <trkpt lat="48.65821" lon="1.94672">
        <ele>173</ele>
        <time>2021-08-26T10:36:38+02:00</time>
      </trkpt>
      <trkpt lat="48.65812" lon="1.94844">
        <ele>172</ele>
        <time>2021-08-26T10:36:43+02:00</time>
      </trkpt>
      <trkpt lat="48.66001" lon="1.95307">
        <ele>171</ele>
        <time>2021-08-26T10:36:48+02:00</time>
      </trkpt>
      <trkpt lat="48.66706" lon="1.95662">
        <ele>171</ele>
        <time>2021-08-26T10:36:53+02:00</time>
      </trkpt>
      <trkpt lat="48.66917" lon="1.95567">
        <ele>168</ele>
        <time>2021-08-26T10:36:58+02:00</time>
      </trkpt>
      <trkpt lat="48.66934" lon="1.95657">
        <ele>168</ele>
        <time>2021-08-26T10:37:03+02:00</time>
      </trkpt>
      <trkpt lat="48.67019" lon="1.95651">
        <ele>168</ele>
        <time>2021-08-26T10:37:08+02:00</time>
      </trkpt>
      <trkpt lat="48.67024" lon="1.95632">
        <ele>167</ele>
        <time>2021-08-26T10:37:13+02:00</time>
      </trkpt>
      <trkpt lat="48.67075" lon="1.956">
        <ele>166</ele>
        <time>2021-08-26T10:37:18+02:00</time>
      </trkpt>
      <trkpt lat="48.67165" lon="1.95633">
        <ele>158</ele>
        <time>2021-08-26T10:37:23+02:00</time>
      </trkpt>
      <trkpt lat="48.67216" lon="1.95722">
        <ele>153</ele>
        <time>2021-08-26T10:37:28+02:00</time>
      </trkpt>
      <trkpt lat="48.67426" lon="1.95919">
        <ele>128</ele>
        <time>2021-08-26T10:37:33+02:00</time>
      </trkpt>
      <trkpt lat="48.67414" lon="1.96009">
        <ele>127</ele>
        <time>2021-08-26T10:37:38+02:00</time>
      </trkpt>
      <trkpt lat="48.67513" lon="1.96119">
        <ele>124</ele>
        <time>2021-08-26T10:37:43+02:00</time>
      </trkpt>
      <trkpt lat="48.67675" lon="1.96142">
        <ele>127</ele>
        <time>2021-08-26T10:37:48+02:00</time>
      </trkpt>
      <trkpt lat="48.67685" lon="1.96108">
        <ele>130</ele>
        <time>2021-08-26T10:37:53+02:00</time>
      </trkpt>
      <trkpt lat="48.67704" lon="1.96049">
        <ele>133</ele>
        <time>2021-08-26T10:37:58+02:00</time>
      </trkpt>
      <trkpt lat="48.6773" lon="1.95997">
        <ele>136</ele>
        <time>2021-08-26T10:38:03+02:00</time>
      </trkpt>
      <trkpt lat="48.67867" lon="1.95745">
        <ele>151</ele>
        <time>2021-08-26T10:38:08+02:00</time>
      </trkpt>
      <trkpt lat="48.67982" lon="1.95584">
        <ele>165</ele>
        <time>2021-08-26T10:38:13+02:00</time>
      </trkpt>
      <trkpt lat="48.68019" lon="1.95459">
        <ele>162</ele>
        <time>2021-08-26T10:38:18+02:00</time>
      </trkpt>
      <trkpt lat="48.6804" lon="1.95357">
        <ele>162</ele>
        <time>2021-08-26T10:38:23+02:00</time>
      </trkpt>
      <trkpt lat="48.68127" lon="1.95296">
        <ele>172</ele>
        <time>2021-08-26T10:38:28+02:00</time>
      </trkpt>
      <trkpt lat="48.6905" lon="1.96097">
        <ele>175</ele>
        <time>2021-08-26T10:38:33+02:00</time>
      </trkpt>
    </trkseg>
  </trk>
</gpx>